Time;durP1;ratioP1;P1;durP2;ratioP2;P2;SDS_P1;SDS_P2;PMS_P1;PMS_P2;Temp;Humidity;BMP_temperature;BMP_pressure;BME280_temperature;BME280_humidity;BME280_pressure;Samples;Min_cycle;Max_cycle;Signal;HPM_P1;HPM_P2
2022/05/31 00:03:30;;;;;;;;;;;11.50;99.90;;;;;;8394024;28;19928;-74
2022/05/31 00:07:32;;;;;;;;;;;11.40;99.90;;;;;;8382675;28;19926;-73
2022/05/31 00:11:36;;;;;;;;;;;11.40;99.90;;;;;;8384865;28;19927;-73
2022/05/31 00:15:38;;;;;;;;;;;11.40;99.90;;;;;;8382407;28;19951;-73
2022/05/31 00:19:39;;;;;;;;;;;11.30;99.90;;;;;;8384828;28;19920;-73
2022/05/31 00:23:41;;;;;;;;;;;11.30;99.90;;;;;;8381763;28;19935;-73
2022/05/31 00:27:43;;;;;;;;;;;11.30;99.90;;;;;;8385685;28;19920;-73
2022/05/31 00:31:46;;;;;;;;;;;11.30;99.90;;;;;;8392120;28;20202;-73
2022/05/31 00:35:53;;;;;;;;;;;11.30;99.90;;;;;;8383738;28;20380;-73
2022/05/31 00:39:55;;;;;;;;;;;11.30;99.90;;;;;;8382815;28;19932;-73
2022/05/31 00:43:59;;;;;;;;;;;11.30;99.90;;;;;;8382696;28;19927;-73
2022/05/31 00:48:02;;;;;;;;;;;11.30;99.90;;;;;;8388545;28;20274;-74
2022/05/31 00:52:06;;;;;;;;;;;11.30;99.90;;;;;;8381115;28;19930;-73
2022/05/31 00:56:19;;;;;;;;;;;11.30;99.90;;;;;;8403161;27;20276;-74
2022/05/31 01:00:27;;;;;;;;;;;11.30;99.90;;;;;;8399718;28;19920;-73
2022/05/31 01:04:49;;;;;;;;;;;11.30;99.90;;;;;;8389292;28;19943;-74
2022/05/31 01:08:53;;;;;;;;;;;11.20;99.90;;;;;;8374195;28;20296;-73
2022/05/31 01:12:55;;;;;;;;;;;11.20;99.90;;;;;;8383314;28;19920;-73
2022/05/31 01:16:58;;;;;;;;;;;11.20;99.90;;;;;;8400962;28;19935;-73
2022/05/31 01:21:00;;;;;;;;;;;11.20;99.90;;;;;;8377243;28;19931;-73
2022/05/31 01:25:24;;;;;;;;;;;11.20;99.90;;;;;;8378252;28;19932;-73
2022/05/31 01:29:32;;;;;;;;;;;11.20;99.90;;;;;;8381738;28;19924;-73
2022/05/31 01:33:40;;;;;;;;;;;11.20;99.90;;;;;;8390633;28;19920;-75
2022/05/31 01:37:45;;;;;;;;;;;11.10;99.90;;;;;;8387022;28;19924;-73
2022/05/31 01:42:03;;;;;;;;;;;11.10;99.90;;;;;;8378883;28;19928;-74
2022/05/31 01:46:06;;;;;;;;;;;11.10;99.90;;;;;;8381930;28;19925;-73
2022/05/31 01:50:11;;;;;;;;;;;11.10;99.90;;;;;;8381279;28;20003;-74
2022/05/31 01:54:14;;;;;;;;;;;11.10;99.90;;;;;;8385422;28;19920;-74
2022/05/31 01:58:27;;;;;;;;;;;11.10;99.90;;;;;;8388699;28;19920;-73
2022/05/31 02:02:35;;;;;;;;;;;11.10;99.90;;;;;;8382451;28;19927;-74
2022/05/31 02:06:38;;;;;;;;;;;11.10;99.90;;;;;;8379298;28;19920;-73
2022/05/31 02:10:40;;;;;;;;;;;11.10;99.90;;;;;;8400131;28;20241;-74
2022/05/31 02:14:42;;;;;;;;;;;11.10;99.90;;;;;;8379256;28;22027;-74
2022/05/31 02:23:05;;;;;;;;;;;11.10;99.90;;;;;;8379334;28;19927;-73
2022/05/31 02:27:07;;;;;;;;;;;11.00;99.90;;;;;;8382898;28;19943;-73
2022/05/31 02:31:09;;;;;;;;;;;11.00;99.90;;;;;;8381843;28;19924;-74
2022/05/31 02:35:11;;;;;;;;;;;11.00;99.90;;;;;;8386099;28;20337;-74
2022/05/31 02:39:12;;;;;;;;;;;11.00;99.90;;;;;;8397026;28;20392;-74
2022/05/31 02:43:14;;;;;;;;;;;10.90;99.90;;;;;;8381997;28;19940;-74
2022/05/31 02:47:16;;;;;;;;;;;10.90;99.90;;;;;;8401324;28;20025;-74
2022/05/31 02:51:17;;;;;;;;;;;10.90;99.90;;;;;;8379012;28;20303;-74
2022/05/31 02:55:19;;;;;;;;;;;10.90;99.90;;;;;;8383518;28;19920;-74
2022/05/31 02:59:21;;;;;;;;;;;10.90;99.90;;;;;;8377310;28;19921;-74
2022/05/31 03:03:22;;;;;;;;;;;10.80;99.90;;;;;;8391600;28;19920;-74
2022/05/31 03:07:24;;;;;;;;;;;10.80;99.90;;;;;;8382065;28;19974;-74
2022/05/31 03:11:48;;;;;;;;;;;10.80;99.90;;;;;;8381827;28;19920;-74
2022/05/31 03:15:52;;;;;;;;;;;10.70;99.90;;;;;;8388393;28;19936;-73
2022/05/31 03:19:57;;;;;;;;;;;10.70;99.90;;;;;;8388190;28;19928;-74
2022/05/31 03:24:01;;;;;;;;;;;10.70;99.90;;;;;;8397090;28;19928;-73
2022/05/31 03:28:22;;;;;;;;;;;10.70;99.90;;;;;;8383302;28;19920;-74
2022/05/31 03:32:23;;;;;;;;;;;10.70;99.90;;;;;;8393117;28;19943;-74
2022/05/31 03:36:25;;;;;;;;;;;10.70;99.90;;;;;;8383883;28;20519;-73
2022/05/31 03:44:47;;;;;;;;;;;10.60;99.90;;;;;;8385073;28;19963;-73
2022/05/31 03:48:49;;;;;;;;;;;10.60;99.90;;;;;;8379766;28;20415;-73
2022/05/31 03:52:50;;;;;;;;;;;10.50;99.90;;;;;;8387847;28;20280;-74
2022/05/31 03:56:52;;;;;;;;;;;10.60;99.90;;;;;;8378508;28;19927;-73
2022/05/31 04:00:54;;;;;;;;;;;10.60;99.90;;;;;;8399299;28;19920;-73
2022/05/31 04:04:55;;;;;;;;;;;10.60;99.90;;;;;;8373941;28;19920;-73
2022/05/31 04:08:58;;;;;;;;;;;10.60;99.90;;;;;;8372586;28;20372;-73
2022/05/31 04:12:59;;;;;;;;;;;10.60;99.90;;;;;;8378840;28;19983;-73
2022/05/31 04:17:01;;;;;;;;;;;10.50;99.90;;;;;;8395163;28;19928;-74
2022/05/31 04:21:04;;;;;;;;;;;10.50;99.90;;;;;;8380450;28;19935;-73
2022/05/31 04:25:06;;;;;;;;;;;10.50;99.90;;;;;;8391530;28;20063;-73
2022/05/31 04:34:12;;;;;;;;;;;10.60;99.90;;;;;;8392574;28;19924;-73
2022/05/31 04:38:13;;;;;;;;;;;10.60;99.90;;;;;;8395108;28;19920;-73
2022/05/31 04:42:16;;;;;;;;;;;10.70;99.90;;;;;;8390639;28;19988;-74
2022/05/31 04:46:19;;;;;;;;;;;10.70;99.90;;;;;;8391803;28;19920;-73
2022/05/31 04:50:22;;;;;;;;;;;10.70;99.90;;;;;;8393021;28;20037;-73
2022/05/31 04:54:27;;;;;;;;;;;10.80;99.90;;;;;;8398644;28;19927;-74
2022/05/31 04:58:28;;;;;;;;;;;10.80;99.90;;;;;;8388230;28;19925;-74
2022/05/31 05:02:30;;;;;;;;;;;10.90;99.90;;;;;;8380694;28;19920;-74
2022/05/31 05:06:32;;;;;;;;;;;11.00;99.90;;;;;;8390748;28;20283;-74
2022/05/31 05:10:33;;;;;;;;;;;11.20;99.90;;;;;;8398844;28;20335;-74
2022/05/31 05:14:35;;;;;;;;;;;11.30;99.90;;;;;;8407865;28;19926;-74
2022/05/31 05:18:37;;;;;;;;;;;11.50;99.90;;;;;;8391695;28;19920;-74
2022/05/31 05:22:39;;;;;;;5.85;3.35;;;11.60;99.90;;;;;;8391849;28;20305;-74
2022/05/31 05:26:47;;;;;;;8.75;3.47;;;11.80;99.90;;;;;;8404715;28;20041;-74
2022/05/31 05:30:48;;;;;;;6.53;4.00;;;11.90;99.90;;;;;;8390851;28;20041;-74
2022/05/31 05:34:52;;;;;;;8.65;5.05;;;12.10;99.90;;;;;;8397287;28;20044;-73
2022/05/31 05:38:54;;;;;;;8.80;4.72;;;12.20;99.90;;;;;;8391162;28;20044;-74
2022/05/31 05:42:56;;;;;;;6.78;3.97;;;12.30;99.90;;;;;;8388822;28;20067;-74
2022/05/31 05:46:58;;;;;;;8.00;4.05;;;12.40;99.90;;;;;;8383359;28;20075;-74
2022/05/31 05:51:00;;;;;;;6.45;3.63;;;12.50;99.90;;;;;;8391407;28;20083;-73
2022/05/31 05:55:02;;;;;;;6.80;3.90;;;12.60;99.90;;;;;;8392192;28;20062;-74
2022/05/31 05:59:04;;;;;;;6.63;3.78;;;12.70;99.90;;;;;;8390176;28;20052;-74
2022/05/31 06:03:16;;;;;;;7.45;3.53;;;12.90;99.90;;;;;;8386366;28;20047;-74
2022/05/31 06:07:28;;;;;;;8.13;3.80;;;13.00;99.90;;;;;;8387710;28;20056;-74
2022/05/31 06:11:38;;;;;;;9.02;4.50;;;13.10;99.90;;;;;;8388441;28;20057;-74
2022/05/31 06:15:46;;;;;;;6.65;3.65;;;13.20;99.90;;;;;;8386117;28;20051;-74
2022/05/31 06:19:49;;;;;;;8.70;4.25;;;13.30;99.90;;;;;;8398324;28;20048;-74
2022/05/31 06:23:53;;;;;;;8.45;4.28;;;13.40;99.90;;;;;;8411757;28;20451;-74
2022/05/31 06:27:55;;;;;;;7.45;4.20;;;13.50;99.90;;;;;;8382951;28;20048;-74
2022/05/31 06:31:56;;;;;;;7.70;4.72;;;13.50;99.90;;;;;;8407891;28;20049;-74
2022/05/31 06:36:01;;;;;;;9.13;4.95;;;13.60;99.90;;;;;;8395172;28;20554;-74
2022/05/31 06:40:03;;;;;;;8.80;5.13;;;13.60;99.90;;;;;;8407227;28;20460;-74
2022/05/31 06:44:05;;;;;;;8.73;5.03;;;13.60;99.90;;;;;;8393986;28;20051;-73
2022/05/31 06:48:07;;;;;;;9.30;6.05;;;13.70;99.90;;;;;;8394609;28;20531;-74
2022/05/31 06:56:49;;;;;;;9.63;5.70;;;13.90;99.90;;;;;;8397455;28;19928;-74
2022/05/31 07:00:53;;;;;;;13.05;7.40;;;14.00;99.90;;;;;;8391695;28;20055;-73
2022/05/31 07:04:54;;;;;;;14.55;9.00;;;14.20;99.90;;;;;;8397231;28;20053;-73
2022/05/31 07:08:56;;;;;;;10.10;7.18;;;14.20;99.90;;;;;;8395573;28;20511;-74
2022/05/31 07:12:58;;;;;;;10.25;6.88;;;14.20;99.90;;;;;;8399915;28;20052;-74
2022/05/31 07:17:00;;;;;;;9.23;6.68;;;14.20;99.90;;;;;;8392869;28;20127;-74
2022/05/31 07:21:02;;;;;;;9.07;6.32;;;14.30;99.90;;;;;;8397202;28;20040;-74
2022/05/31 07:25:05;;;;;;;10.90;6.57;;;14.40;99.90;;;;;;8395585;28;20056;-74
2022/05/31 07:29:06;;;;;;;11.10;6.75;;;14.50;99.90;;;;;;8395664;28;20082;-74
2022/05/31 07:33:08;;;;;;;7.70;5.47;;;14.70;99.90;;;;;;8412104;28;20048;-73
2022/05/31 07:37:30;;;;;;;12.27;6.38;;;14.70;99.90;;;;;;8393031;28;20373;-74
2022/05/31 07:41:33;;;;;;;10.65;5.65;;;14.70;99.90;;;;;;8397027;28;20143;-74
2022/05/31 07:45:34;;;;;;;9.30;6.18;;;14.70;99.90;;;;;;8397700;28;20056;-74
2022/05/31 07:49:36;;;;;;;10.65;6.15;;;14.80;99.90;;;;;;8391627;28;20553;-74
2022/05/31 07:53:38;;;;;;;11.02;6.75;;;14.70;99.90;;;;;;8409755;28;20051;-74
2022/05/31 08:02:00;;;;;;;;;;;14.80;99.90;;;;;;8390574;28;20044;-74
2022/05/31 08:06:08;;;;;;;9.73;6.25;;;14.90;99.90;;;;;;8390564;28;20693;-74
2022/05/31 08:10:10;;;;;;;9.63;5.70;;;14.90;99.90;;;;;;8359481;28;20057;-74
2022/05/31 08:14:12;;;;;;;9.00;6.30;;;15.00;99.90;;;;;;8359374;28;20064;-74
2022/05/31 08:18:14;;;;;;;8.95;5.70;;;14.90;99.90;;;;;;8353656;28;20048;-73
2022/05/31 08:22:16;;;;;;;10.30;5.82;;;15.00;99.90;;;;;;8373694;28;20052;-74
2022/05/31 08:26:17;;;;;;;9.93;5.22;;;15.10;99.90;;;;;;8363606;28;20068;-74
2022/05/31 08:30:19;;;;;;;9.57;5.50;;;15.30;99.90;;;;;;8359431;28;20491;-74
2022/05/31 08:34:21;;;;;;;7.97;4.43;;;15.50;99.90;;;;;;8357882;28;20052;-74
2022/05/31 08:38:23;;;;;;;7.55;4.68;;;15.60;99.90;;;;;;8357904;28;20051;-74
2022/05/31 08:42:52;;;;;;;9.35;4.63;;;15.70;99.90;;;;;;8358258;28;20072;-73
2022/05/31 08:47:22;;;;;;;7.88;4.75;;;15.70;99.90;;;;;;8358181;28;20060;-74
2022/05/31 08:51:53;;;;;;;8.93;4.13;;;15.90;99.90;;;;;;8352796;28;20056;-74
2022/05/31 09:01:04;;;;;;;6.43;3.85;;;16.10;99.90;;;;;;8357388;28;20048;-74
2022/05/31 09:05:14;;;;;;;6.20;3.58;;;16.10;99.90;;;;;;8388499;27;20052;-74
2022/05/31 09:09:26;;;;;;;8.70;3.60;;;16.00;99.90;;;;;;8355724;28;20512;-74
2022/05/31 09:13:43;;;;;;;5.68;3.00;;;15.90;99.90;;;;;;8370201;28;20045;-73
2022/05/31 09:18:04;;;;;;;5.78;3.30;;;15.80;99.90;;;;;;8356107;28;20037;-74
2022/05/31 09:22:07;;;;;;;4.60;2.35;;;15.80;99.90;;;;;;8356931;28;20060;-74
2022/05/31 09:26:09;;;;;;;9.10;4.70;;;15.80;99.90;;;;;;8356418;28;19929;-74
2022/05/31 09:30:36;;;;;;;7.90;3.90;;;15.90;99.90;;;;;;8376412;28;19928;-74
2022/05/31 09:34:47;;;;;;;;;;;15.90;99.90;;;;;;8374651;28;19920;-74
2022/05/31 09:39:03;;;;;;;9.07;4.77;;;16.00;99.90;;;;;;8368819;28;19928;-73
2022/05/31 09:43:14;;;;;;;6.93;4.20;;;16.20;99.90;;;;;;8369768;28;20098;-74
2022/05/31 09:47:26;;;;;;;7.53;4.55;;;16.30;99.90;;;;;;8366421;28;20079;-74
2022/05/31 09:51:35;;;;;;;8.70;5.57;;;16.40;99.90;;;;;;8356875;28;20045;-73
2022/05/31 10:00:16;;;;;;;6.68;4.00;;;16.70;99.90;;;;;;8357801;28;20385;-73
2022/05/31 10:04:28;;;;;;;8.65;3.92;;;16.80;99.90;;;;;;8360994;28;20048;-73
2022/05/31 10:08:34;;;;;;;8.32;3.60;;;16.90;99.90;;;;;;8372269;28;20056;-74
2022/05/31 10:13:10;;;;;;;7.50;3.90;;;16.80;99.90;;;;;;8364427;28;20061;-74
2022/05/31 10:17:37;;;;;;;5.80;3.20;;;16.80;99.90;;;;;;8367375;28;19943;-74
2022/05/31 10:21:43;;;;;;;;;;;16.70;99.90;;;;;;8359503;28;20275;-74
2022/05/31 10:25:51;;;;;;;6.25;3.35;;;16.70;99.90;;;;;;8370785;28;19924;-74
2022/05/31 10:30:09;;;;;;;6.38;3.45;;;16.70;99.90;;;;;;8371533;28;20094;-74
2022/05/31 10:34:44;;;;;;;7.28;4.60;;;17.00;99.90;;;;;;8356239;28;20048;-74
2022/05/31 10:38:48;;;;;;;8.50;4.40;;;17.30;99.90;;;;;;8355662;28;20037;-74
2022/05/31 10:42:54;;;;;;;7.65;4.30;;;17.40;99.90;;;;;;8357250;28;20634;-74
2022/05/31 10:47:09;;;;;;;7.13;3.95;;;17.60;99.90;;;;;;8379339;28;20087;-73
2022/05/31 10:51:26;;;;;;;7.50;4.30;;;17.70;99.90;;;;;;8378880;28;20048;-73
2022/05/31 10:55:39;;;;;;;9.33;4.57;;;17.70;99.90;;;;;;8367372;28;20045;-73
2022/05/31 11:00:12;;;;;;;5.70;3.55;;;17.70;99.90;;;;;;8379927;28;19932;-74
2022/05/31 11:04:21;;;;;;;6.72;3.40;;;17.50;99.90;;;;;;8354490;28;20408;-74
2022/05/31 11:13:21;;;;;;;10.13;4.28;;;17.40;99.90;;;;;;8356205;28;20048;-73
2022/05/31 11:17:39;;;;;;;6.10;3.58;;;17.30;99.90;;;;;;8353694;28;20234;-73
2022/05/31 11:21:53;;;;;;;6.53;3.47;;;17.30;99.90;;;;;;8359614;28;20098;-73
2022/05/31 11:26:32;;;;;;;8.18;4.53;;;17.40;99.90;;;;;;8348791;28;20053;-74
2022/05/31 11:31:27;;;;;;;7.28;4.85;;;17.40;99.90;;;;;;8368637;28;20068;-73
2022/05/31 11:35:47;;;;;;;8.77;4.43;;;17.40;99.90;;;;;;8377645;28;20071;-73
2022/05/31 11:39:53;;;;;;;9.68;5.32;;;17.40;99.90;;;;;;8368020;28;20049;-73
2022/05/31 11:44:32;;;;;;;7.57;4.82;;;17.60;99.90;;;;;;8358970;28;20041;-73
2022/05/31 11:48:56;;;;;;;5.70;3.95;;;17.70;99.90;;;;;;8383734;28;20045;-74
2022/05/31 11:53:45;;;;;;;6.72;4.18;;;17.90;99.90;;;;;;8370988;28;20044;-75
2022/05/31 11:58:10;;;;;;;7.55;4.05;;;17.90;99.90;;;;;;8365358;28;20045;-74
2022/05/31 12:02:38;;;;;;;7.28;3.38;;;17.80;99.90;;;;;;8369576;28;20154;-74
2022/05/31 12:07:04;;;;;;;5.15;3.00;;;17.80;99.90;;;;;;8368867;28;20058;-74
2022/05/31 12:11:26;;;;;;;5.73;2.83;;;17.70;99.90;;;;;;8362172;28;20500;-74
2022/05/31 12:15:31;;;;;;;5.60;2.83;;;17.80;99.90;;;;;;8376159;28;20106;-73
2022/05/31 12:19:53;;;;;;;6.05;3.42;;;17.80;99.90;;;;;;8357806;28;20106;-73
2022/05/31 12:24:04;;;;;;;6.03;2.75;;;17.80;99.90;;;;;;8358690;28;20378;-73
2022/05/31 12:28:18;;;;;;;5.70;2.50;;;17.80;99.90;;;;;;8368524;28;20057;-73
2022/05/31 12:37:23;;;;;;;;;;;17.90;99.90;;;;;;8365220;28;20011;-73
2022/05/31 12:41:32;;;;;;;5.45;2.40;;;18.20;99.90;;;;;;8370178;28;20066;-73
2022/05/31 12:45:34;;;;;;;;;;;18.40;99.90;;;;;;8369560;28;19924;-73
2022/05/31 12:49:36;;;;;;;;;;;18.70;99.90;;;;;;8371165;28;19935;-74
2022/05/31 12:58:42;;;;;;;;;;;18.80;99.90;;;;;;8368350;28;19928;-73
2022/05/31 13:02:44;;;;;;;;;;;18.70;99.90;;;;;;8357385;28;19932;-74
2022/05/31 13:06:58;;;;;;;;;;;18.60;99.90;;;;;;8356517;28;19932;-74
2022/05/31 13:19:34;;;;;;;;;;;18.40;99.90;;;;;;8370428;28;20042;-74
2022/05/31 13:20:13;;;;;;;;;;;18.40;99.90;;;;;;8363726;28;19925;-74
2022/05/31 13:24:17;;;;;;;;;;;18.30;99.90;;;;;;8366337;28;19932;-74
2022/05/31 13:28:24;;;;;;;;;;;18.30;99.90;;;;;;8355889;28;19936;-74
2022/05/31 13:32:30;;;;;;;;;;;18.20;99.90;;;;;;8389361;28;19929;-74
2022/05/31 13:36:39;;;;;;;;;;;18.10;99.90;;;;;;8353873;28;19925;-73
2022/05/31 13:40:49;;;;;;;;;;;18.10;99.90;;;;;;8392425;27;19931;-73
2022/05/31 13:44:50;;;;;;;;;;;18.00;99.90;;;;;;8382977;28;19935;-73
2022/05/31 13:48:54;;;;;;;;;;;17.90;99.90;;;;;;8366311;28;19932;-73
2022/05/31 13:52:55;;;;;;;;;;;17.80;99.90;;;;;;8384706;28;19929;-73
2022/05/31 13:57:02;;;;;;;;;;;17.70;99.90;;;;;;8370393;28;20582;-74
2022/05/31 14:01:17;;;;;;;6.55;2.83;;;17.50;99.90;;;;;;8361155;28;19973;-73
2022/05/31 14:05:25;;;;;;;5.82;3.40;;;17.00;99.90;;;;;;8350185;28;20110;-73
2022/05/31 14:09:31;;;;;;;4.60;2.80;;;15.80;99.90;;;;;;8372049;28;20105;-74
2022/05/31 14:13:33;;;;;;;;;;;14.60;99.90;;;;;;8355612;28;19928;-73
2022/05/31 14:17:37;;;;;;;6.15;2.92;;;13.70;99.90;;;;;;8354530;28;19927;-73
2022/05/31 14:21:41;;;;;;;5.60;2.67;;;13.40;99.90;;;;;;8357199;28;20447;-74
2022/05/31 14:25:45;;;;;;;6.07;2.55;;;13.40;99.90;;;;;;8353169;28;20417;-74
2022/05/31 14:30:05;;;;;;;4.63;2.40;;;13.60;99.90;;;;;;8361584;28;20067;-74
2022/05/31 14:34:13;;;;;;;5.45;2.55;;;13.90;99.90;;;;;;8379949;28;20369;-74
2022/05/31 14:38:30;;;;;;;5.65;2.90;;;14.30;99.90;;;;;;8360742;28;20055;-74
2022/05/31 14:42:42;;;;;;;5.10;2.70;;;14.70;99.90;;;;;;8357473;28;20076;-74
2022/05/31 14:46:43;;;;;;;5.85;3.17;;;15.00;99.90;;;;;;8365503;28;24526;-74
2022/05/31 14:50:55;;;;;;;5.30;3.33;;;15.30;99.90;;;;;;8354146;28;20049;-74
2022/05/31 14:55:11;;;;;;;;;;;15.50;99.90;;;;;;8356471;28;20049;-74
2022/05/31 14:59:24;;;;;;;7.75;3.90;;;15.80;99.90;;;;;;8359893;28;20070;-74
2022/05/31 15:03:35;;;;;;;6.97;4.45;;;16.00;99.90;;;;;;8375144;28;20059;-74
2022/05/31 15:07:56;;;;;;;7.90;4.50;;;16.10;99.90;;;;;;8376313;28;20053;-74
2022/05/31 15:20:58;;;;;;;6.68;4.60;;;15.90;99.90;;;;;;8361742;28;20137;-74
2022/05/31 15:25:00;;;;;;;6.10;4.05;;;15.90;99.90;;;;;;8363724;28;20119;-74
2022/05/31 15:29:03;;;;;;;7.07;4.22;;;15.80;99.90;;;;;;8361331;28;20081;-74
2022/05/31 15:33:10;;;;;;;7.57;4.32;;;15.90;99.90;;;;;;8365487;28;20045;-74
2022/05/31 15:37:13;;;;;;;6.15;3.85;;;16.10;99.90;;;;;;8363481;28;20041;-74
2022/05/31 15:41:15;;;;;;;5.50;4.03;;;16.30;99.90;;;;;;8378352;28;20037;-74
2022/05/31 15:45:16;;;;;;;5.63;3.60;;;16.50;99.90;;;;;;8360042;28;20052;-74
2022/05/31 15:49:18;;;;;;;6.80;4.10;;;16.70;99.90;;;;;;8362586;28;20189;-74
2022/05/31 15:53:20;;;;;;;6.15;3.58;;;16.90;99.90;;;;;;8355282;28;20148;-74
2022/05/31 15:57:24;;;;;;;6.22;3.42;;;17.20;99.90;;;;;;8362182;28;20045;-74
2022/05/31 16:01:26;;;;;;;6.20;3.40;;;17.70;99.90;;;;;;8354584;28;20390;-75
2022/05/31 16:05:28;;;;;;;;;;;18.40;99.90;;;;;;8350421;28;20496;-74
2022/05/31 16:09:31;;;;;;;;;;;19.10;99.90;;;;;;8353025;28;19921;-74
2022/05/31 16:13:33;;;;;;;;;;;19.80;99.90;;;;;;8358583;28;20292;-74
2022/05/31 16:17:36;;;;;;;;;;;20.50;99.90;;;;;;8360486;28;20392;-74
2022/05/31 16:21:37;;;;;;;;;;;20.60;99.90;;;;;;8380143;28;20005;-74
2022/05/31 16:25:39;;;;;;;;;;;20.20;99.90;;;;;;8387092;28;19936;-75
2022/05/31 16:29:41;;;;;;;;;;;20.20;99.90;;;;;;8376156;28;20392;-75
2022/05/31 16:33:43;;;;;;;;;;;20.30;99.90;;;;;;8370968;28;19924;-75
2022/05/31 16:42:05;;;;;;;;;;;20.90;99.90;;;;;;8375829;28;19929;-74
2022/05/31 16:46:07;;;;;;;;;;;20.60;99.90;;;;;;8370049;28;20281;-74
2022/05/31 16:50:17;;;;;;;;;;;19.90;99.90;;;;;;8374415;28;19920;-74
2022/05/31 16:54:24;;;;;;;4.10;2.22;;;19.20;99.90;;;;;;8368586;28;19920;-74
2022/05/31 16:58:26;;;;;;;3.93;2.47;;;18.60;99.90;;;;;;8360268;28;20087;-74
2022/05/31 17:02:27;;;;;;;4.43;2.55;;;18.20;99.90;;;;;;8380299;28;20056;-74
2022/05/31 17:15:15;;;;;;;4.63;2.50;;;17.30;99.90;;;;;;8357539;28;20416;-74
2022/05/31 17:19:17;;;;;;;3.55;2.13;;;17.00;99.90;;;;;;8369688;28;20095;-74
2022/05/31 17:23:23;;;;;;;4.15;2.53;;;16.80;99.90;;;;;;8361266;28;20052;-74
2022/05/31 17:27:25;;;;;;;6.28;2.88;;;16.40;99.90;;;;;;8372024;28;20052;-74
2022/05/31 17:31:27;;;;;;;6.10;3.30;;;16.10;99.90;;;;;;8406895;28;20049;-74
2022/05/31 17:35:31;;;;;;;5.35;3.17;;;16.00;99.90;;;;;;8366836;28;20115;-75
2022/05/31 17:39:32;;;;;;;4.65;3.13;;;15.90;99.90;;;;;;8371659;28;20082;-74
2022/05/31 17:43:35;;;;;;;5.63;3.42;;;15.80;99.90;;;;;;8369819;28;20048;-74
2022/05/31 17:47:37;;;;;;;5.47;3.38;;;15.80;99.90;;;;;;8368251;28;20080;-74
2022/05/31 17:51:42;;;;;;;6.10;3.85;;;15.80;99.90;;;;;;8376980;28;20051;-74
2022/05/31 17:55:44;;;;;;;6.30;3.95;;;15.70;99.90;;;;;;8374024;28;20404;-74
2022/05/31 17:59:46;;;;;;;6.43;4.40;;;15.60;99.90;;;;;;8377120;28;20048;-74
2022/05/31 18:03:47;;;;;;;7.00;4.15;;;15.50;99.90;;;;;;8375906;28;20040;-74
2022/05/31 18:07:49;;;;;;;5.30;3.80;;;15.40;99.90;;;;;;8367569;28;20076;-73
2022/05/31 18:11:51;;;;;;;6.55;4.10;;;15.30;99.90;;;;;;8375571;28;20052;-74
2022/05/31 18:15:53;;;;;;;6.40;3.88;;;15.30;99.90;;;;;;8370696;28;20045;-74
2022/05/31 18:19:55;;;;;;;5.90;4.05;;;15.30;99.90;;;;;;8387245;28;20041;-74
2022/05/31 18:23:59;;;;;;;6.63;3.60;;;15.20;99.90;;;;;;8364873;28;20048;-73
2022/05/31 18:32:24;;;;;;;5.70;3.80;;;15.20;99.90;;;;;;8371388;28;20045;-74
2022/05/31 18:40:47;;;;;;;6.07;3.53;;;15.20;99.90;;;;;;8370209;28;20071;-73
2022/05/31 18:44:52;;;;;;;5.50;3.72;;;15.20;99.90;;;;;;8367025;28;20049;-73
2022/05/31 18:48:54;;;;;;;5.72;3.53;;;15.20;99.90;;;;;;8367301;28;20064;-73
2022/05/31 18:52:56;;;;;;;4.82;3.33;;;15.10;99.90;;;;;;8366331;28;20064;-73
2022/05/31 18:56:58;;;;;;;5.03;3.28;;;15.00;99.90;;;;;;8364545;28;20053;-74
2022/05/31 19:01:01;;;;;;;7.32;3.80;;;15.00;99.90;;;;;;8366361;28;20401;-74
2022/05/31 19:05:07;;;;;;;6.80;2.83;;;15.00;99.90;;;;;;8364178;28;20180;-73
2022/05/31 19:09:09;;;;;;;4.18;2.55;;;14.90;99.90;;;;;;8369850;28;20052;-73
2022/05/31 19:13:27;;;;;;;5.88;3.50;;;14.80;99.90;;;;;;8366408;28;20060;-73
2022/05/31 19:17:30;;;;;;;5.90;3.50;;;14.70;99.90;;;;;;8366670;28;20047;-73
2022/05/31 19:21:36;;;;;;;4.70;2.90;;;14.60;99.90;;;;;;8370110;28;20040;-73
2022/05/31 19:25:37;;;;;;;4.97;3.17;;;14.50;99.90;;;;;;8382934;28;20072;-73
2022/05/31 19:29:39;;;;;;;5.35;3.03;;;14.40;99.90;;;;;;8374654;28;20052;-73
2022/05/31 19:33:45;;;;;;;4.68;2.72;;;14.40;99.90;;;;;;8371924;28;20064;-73
2022/05/31 19:37:54;;;;;;;4.30;2.40;;;14.40;99.90;;;;;;8365676;28;20115;-73
2022/05/31 19:41:57;;;;;;;5.40;2.80;;;14.40;99.90;;;;;;8366128;28;20059;-73
2022/05/31 19:45:59;;;;;;;4.68;2.83;;;14.50;99.90;;;;;;8368879;28;20453;-73
2022/05/31 19:50:02;;;;;;;5.10;2.58;;;14.50;99.90;;;;;;8375332;28;20503;-73
2022/05/31 19:54:04;;;;;;;5.00;2.88;;;14.50;99.90;;;;;;8370782;28;20075;-73
2022/05/31 19:58:06;;;;;;;5.03;2.80;;;14.50;99.90;;;;;;8368982;28;20060;-73
2022/05/31 20:02:08;;;;;;;4.88;3.10;;;14.60;99.90;;;;;;8380426;28;20522;-73
2022/05/31 20:06:10;;;;;;;5.07;2.60;;;14.50;99.90;;;;;;8372772;28;20052;-73
2022/05/31 20:10:18;;;;;;;5.47;3.10;;;14.50;99.90;;;;;;8369123;28;20049;-73
2022/05/31 20:14:22;;;;;;;5.68;3.45;;;14.50;99.90;;;;;;8365814;28;20048;-73
2022/05/31 20:22:47;;;;;;;5.13;3.22;;;14.40;99.90;;;;;;8353116;28;20051;-73
2022/05/31 20:26:49;;;;;;;4.80;3.20;;;14.40;99.90;;;;;;8367943;28;20048;-73
2022/05/31 20:30:51;;;;;;;4.70;3.10;;;14.40;99.90;;;;;;8370650;28;20056;-73
2022/05/31 20:34:53;;;;;;;5.40;3.00;;;14.30;99.90;;;;;;8372842;28;20040;-73
2022/05/31 20:38:55;;;;;;;5.32;3.40;;;14.30;99.90;;;;;;8366139;28;20072;-73
2022/05/31 20:42:58;;;;;;;5.20;3.20;;;14.30;99.90;;;;;;8369329;28;20094;-73
2022/05/31 20:47:00;;;;;;;4.95;3.25;;;14.30;99.90;;;;;;8368882;28;20044;-73
2022/05/31 20:51:04;;;;;;;5.28;3.45;;;14.30;99.90;;;;;;8369472;28;20050;-74
2022/05/31 20:55:08;;;;;;;5.75;3.53;;;14.20;99.90;;;;;;8368118;28;20048;-73
2022/05/31 20:59:10;;;;;;;6.15;3.72;;;14.20;99.90;;;;;;8367659;28;20051;-73
2022/05/31 21:03:12;;;;;;;5.43;3.30;;;14.20;99.90;;;;;;8378284;28;20067;-73
2022/05/31 21:07:16;;;;;;;4.93;3.20;;;14.20;99.90;;;;;;8376366;28;20694;-73
2022/05/31 21:11:18;;;;;;;5.72;3.58;;;14.10;99.90;;;;;;8376391;28;20076;-73
2022/05/31 21:15:21;;;;;;;4.90;3.30;;;14.10;99.90;;;;;;8378828;28;20071;-73
2022/05/31 21:19:23;;;;;;;4.93;3.30;;;14.00;99.90;;;;;;8377444;28;20047;-73
2022/05/31 21:23:25;;;;;;;5.78;3.38;;;14.00;99.90;;;;;;8381670;28;20044;-73
2022/05/31 21:27:27;;;;;;;5.30;3.53;;;14.00;99.90;;;;;;8376747;28;20040;-73
2022/05/31 21:31:29;;;;;;;5.40;3.55;;;13.90;99.90;;;;;;8377933;28;20111;-73
2022/05/31 21:35:31;;;;;;;5.28;3.35;;;13.90;99.90;;;;;;8377631;28;20044;-73
2022/05/31 21:43:54;;;;;;;4.40;3.10;;;13.80;99.90;;;;;;8374661;28;20036;-73
2022/05/31 21:47:56;;;;;;;7.70;5.35;;;13.80;99.90;;;;;;8373971;28;20060;-73
2022/05/31 21:51:58;;;;;;;5.47;3.78;;;13.70;99.90;;;;;;8371487;28;20052;-73
2022/05/31 21:56:02;;;;;;;5.93;3.85;;;13.70;99.90;;;;;;8375746;28;20056;-73
2022/05/31 22:00:20;;;;;;;6.32;4.00;;;13.70;99.90;;;;;;8379224;28;20044;-73
2022/05/31 22:04:22;;;;;;;7.47;5.07;;;13.70;99.90;;;;;;8393657;28;20067;-73
2022/05/31 22:08:24;;;;;;;6.93;4.97;;;13.60;99.90;;;;;;8370923;28;20057;-73
2022/05/31 22:12:26;;;;;;;7.40;5.05;;;13.60;99.90;;;;;;8370887;28;20079;-73
2022/05/31 22:16:41;;;;;;;7.65;5.60;;;13.50;99.90;;;;;;8378897;28;20416;-73
2022/05/31 22:20:43;;;;;;;7.18;5.22;;;13.50;99.90;;;;;;8376913;28;20322;-73
2022/05/31 22:29:07;;;;;;;8.27;5.28;;;13.50;99.90;;;;;;8376034;28;20052;-73
2022/05/31 22:33:09;;;;;;;7.65;5.28;;;13.50;99.90;;;;;;8376910;28;20403;-73
2022/05/31 22:37:15;;;;;;;8.52;5.40;;;13.50;99.90;;;;;;8373872;28;20048;-73
2022/05/31 22:41:26;;;;;;;10.15;6.47;;;13.50;99.90;;;;;;8367220;28;22515;-73
2022/05/31 22:45:28;;;;;;;7.43;5.45;;;13.50;99.90;;;;;;8375266;28;20057;-73
2022/05/31 22:49:30;;;;;;;8.35;5.50;;;13.50;99.90;;;;;;8375119;28;20416;-73
2022/05/31 22:53:32;;;;;;;7.35;5.38;;;13.50;99.90;;;;;;8375631;28;20734;-73
2022/05/31 22:57:35;;;;;;;6.72;5.10;;;13.50;99.90;;;;;;8373029;28;20036;-73
2022/05/31 23:01:37;;;;;;;6.82;4.65;;;13.40;99.90;;;;;;8376090;28;20071;-73
2022/05/31 23:05:39;;;;;;;7.72;4.95;;;13.40;99.90;;;;;;8375105;28;20527;-73
2022/05/31 23:09:41;;;;;;;7.43;5.20;;;13.40;99.90;;;;;;8368058;28;20040;-73
2022/05/31 23:13:43;;;;;;;6.95;4.85;;;13.40;99.90;;;;;;8373098;28;20404;-73
2022/05/31 23:17:49;;;;;;;7.40;4.97;;;13.30;99.90;;;;;;8377930;28;20349;-74
2022/05/31 23:26:26;;;;;;;7.18;4.90;;;13.30;99.90;;;;;;8348237;28;20045;-73
2022/05/31 23:35:01;;;;;;;6.70;4.47;;;13.30;99.90;;;;;;8378380;28;20240;-73
2022/05/31 23:39:03;;;;;;;6.40;4.60;;;13.20;99.90;;;;;;8394478;28;20045;-73
2022/05/31 23:43:05;;;;;;;6.40;4.40;;;13.20;99.90;;;;;;8379738;28;20361;-73
2022/05/31 23:47:07;;;;;;;8.25;5.80;;;13.20;99.90;;;;;;8378244;28;20087;-73
2022/05/31 23:51:09;;;;;;;11.57;8.48;;;13.20;99.90;;;;;;8376804;28;20075;-73
2022/05/31 23:55:12;;;;;;;12.55;9.57;;;13.10;99.90;;;;;;8380798;28;20056;-74